sensor_id;sensor_type;location;lat;lon;timestamp;temperature;humidity
6764;DHT22;47432;48.760;9.178;2023-08-21T00:01:10;24.80;99.90
6764;DHT22;47432;48.760;9.178;2023-08-21T00:03:38;24.70;99.90
6764;DHT22;47432;48.760;9.178;2023-08-21T00:06:04;24.60;99.90
6764;DHT22;47432;48.760;9.178;2023-08-21T00:08:31;24.60;99.90
6764;DHT22;47432;48.760;9.178;2023-08-21T00:10:57;24.60;99.90
6764;DHT22;47432;48.760;9.178;2023-08-21T00:13:23;24.50;99.90
6764;DHT22;47432;48.760;9.178;2023-08-21T00:15:49;24.60;99.90
6764;DHT22;47432;48.760;9.178;2023-08-21T00:18:14;24.60;99.90
6764;DHT22;47432;48.760;9.178;2023-08-21T00:20:40;24.60;99.90
6764;DHT22;47432;48.760;9.178;2023-08-21T00:23:07;24.60;99.90
6764;DHT22;47432;48.760;9.178;2023-08-21T00:25:34;24.60;99.90
6764;DHT22;47432;48.760;9.178;2023-08-21T00:28:00;24.60;99.90
6764;DHT22;47432;48.760;9.178;2023-08-21T00:30:28;24.60;99.90
6764;DHT22;47432;48.760;9.178;2023-08-21T00:32:54;24.60;99.90
6764;DHT22;47432;48.760;9.178;2023-08-21T00:35:20;24.60;99.90
6764;DHT22;47432;48.760;9.178;2023-08-21T00:37:45;24.60;99.90
6764;DHT22;47432;48.760;9.178;2023-08-21T00:40:12;24.60;99.90
6764;DHT22;47432;48.760;9.178;2023-08-21T00:42:40;24.50;99.90
6764;DHT22;47432;48.760;9.178;2023-08-21T00:45:06;24.60;99.90
6764;DHT22;47432;48.760;9.178;2023-08-21T00:47:34;24.60;99.90
6764;DHT22;47432;48.760;9.178;2023-08-21T00:50:01;24.60;99.90
6764;DHT22;47432;48.760;9.178;2023-08-21T00:52:27;24.60;99.90
6764;DHT22;47432;48.760;9.178;2023-08-21T00:54:54;24.60;99.90
6764;DHT22;47432;48.760;9.178;2023-08-21T00:57:21;24.60;99.90
6764;DHT22;47432;48.760;9.178;2023-08-21T00:59:48;24.60;99.90
6764;DHT22;47432;48.760;9.178;2023-08-21T01:02:14;24.60;99.90
6764;DHT22;47432;48.760;9.178;2023-08-21T01:04:46;24.60;99.90
6764;DHT22;47432;48.760;9.178;2023-08-21T01:07:13;24.60;99.90
6764;DHT22;47432;48.760;9.178;2023-08-21T01:09:49;24.40;99.90
6764;DHT22;47432;48.760;9.178;2023-08-21T01:15:24;24.30;99.90
6764;DHT22;47432;48.760;9.178;2023-08-21T01:17:53;24.20;99.90
6764;DHT22;47432;48.760;9.178;2023-08-21T01:20:21;24.20;99.90
6764;DHT22;47432;48.760;9.178;2023-08-21T01:22:47;24.10;99.90
6764;DHT22;47432;48.760;9.178;2023-08-21T01:25:13;24.10;99.90
6764;DHT22;47432;48.760;9.178;2023-08-21T01:27:45;24.00;99.90
6764;DHT22;47432;48.760;9.178;2023-08-21T01:30:13;24.00;99.90
6764;DHT22;47432;48.760;9.178;2023-08-21T01:33:05;24.00;99.90
6764;DHT22;47432;48.760;9.178;2023-08-21T01:35:33;23.90;99.90
6764;DHT22;47432;48.760;9.178;2023-08-21T01:38:02;23.80;99.90
6764;DHT22;47432;48.760;9.178;2023-08-21T01:40:30;23.80;99.90
6764;DHT22;47432;48.760;9.178;2023-08-21T01:42:56;23.80;99.90
6764;DHT22;47432;48.760;9.178;2023-08-21T01:45:24;23.90;99.90
6764;DHT22;47432;48.760;9.178;2023-08-21T01:47:50;23.80;99.90
6764;DHT22;47432;48.760;9.178;2023-08-21T01:50:16;23.80;99.90
6764;DHT22;47432;48.760;9.178;2023-08-21T01:52:42;23.80;99.90
6764;DHT22;47432;48.760;9.178;2023-08-21T01:55:08;23.70;99.90
6764;DHT22;47432;48.760;9.178;2023-08-21T01:57:34;23.70;99.90
6764;DHT22;47432;48.760;9.178;2023-08-21T02:00:00;23.70;99.90
6764;DHT22;47432;48.760;9.178;2023-08-21T02:02:25;23.60;99.90
6764;DHT22;47432;48.760;9.178;2023-08-21T02:04:53;23.60;99.90
6764;DHT22;47432;48.760;9.178;2023-08-21T02:07:19;23.60;99.90
6764;DHT22;47432;48.760;9.178;2023-08-21T02:09:44;23.60;99.90
6764;DHT22;47432;48.760;9.178;2023-08-21T02:12:10;23.60;99.90
6764;DHT22;47432;48.760;9.178;2023-08-21T02:14:38;23.50;99.90
6764;DHT22;47432;48.760;9.178;2023-08-21T02:17:04;23.40;99.90
6764;DHT22;47432;48.760;9.178;2023-08-21T02:19:31;23.40;99.90
6764;DHT22;47432;48.760;9.178;2023-08-21T02:21:56;23.30;99.90
6764;DHT22;47432;48.760;9.178;2023-08-21T02:24:22;23.30;99.90
6764;DHT22;47432;48.760;9.178;2023-08-21T02:26:48;23.30;99.90
6764;DHT22;47432;48.760;9.178;2023-08-21T02:29:13;23.20;99.90
6764;DHT22;47432;48.760;9.178;2023-08-21T02:31:39;23.20;99.90
6764;DHT22;47432;48.760;9.178;2023-08-21T02:34:05;23.20;99.90
6764;DHT22;47432;48.760;9.178;2023-08-21T02:36:31;23.20;99.90
6764;DHT22;47432;48.760;9.178;2023-08-21T02:38:56;23.20;99.90
6764;DHT22;47432;48.760;9.178;2023-08-21T02:41:22;23.20;99.90
6764;DHT22;47432;48.760;9.178;2023-08-21T02:43:48;23.10;99.90
6764;DHT22;47432;48.760;9.178;2023-08-21T02:46:13;23.00;99.90
6764;DHT22;47432;48.760;9.178;2023-08-21T02:48:40;23.10;99.90
6764;DHT22;47432;48.760;9.178;2023-08-21T02:51:05;23.00;99.90
6764;DHT22;47432;48.760;9.178;2023-08-21T02:53:31;22.90;99.90
6764;DHT22;47432;48.760;9.178;2023-08-21T02:55:57;22.90;99.90
6764;DHT22;47432;48.760;9.178;2023-08-21T02:58:25;22.90;99.90
6764;DHT22;47432;48.760;9.178;2023-08-21T03:00:50;22.90;99.90
6764;DHT22;47432;48.760;9.178;2023-08-21T03:03:16;22.80;99.90
6764;DHT22;47432;48.760;9.178;2023-08-21T03:05:42;22.80;99.90
6764;DHT22;47432;48.760;9.178;2023-08-21T03:08:08;22.80;99.90
6764;DHT22;47432;48.760;9.178;2023-08-21T03:10:33;22.80;99.90
6764;DHT22;47432;48.760;9.178;2023-08-21T03:12:59;22.80;99.90
6764;DHT22;47432;48.760;9.178;2023-08-21T03:15:27;22.80;99.90
6764;DHT22;47432;48.760;9.178;2023-08-21T03:17:54;22.80;99.90
6764;DHT22;47432;48.760;9.178;2023-08-21T03:20:20;22.70;99.90
6764;DHT22;47432;48.760;9.178;2023-08-21T03:22:48;22.70;99.90
6764;DHT22;47432;48.760;9.178;2023-08-21T03:25:14;22.70;99.90
6764;DHT22;47432;48.760;9.178;2023-08-21T03:27:40;22.80;99.90
6764;DHT22;47432;48.760;9.178;2023-08-21T03:30:10;22.80;99.90
6764;DHT22;47432;48.760;9.178;2023-08-21T03:32:36;22.70;99.90
6764;DHT22;47432;48.760;9.178;2023-08-21T03:35:02;22.60;99.90
6764;DHT22;47432;48.760;9.178;2023-08-21T03:37:27;22.40;99.90
6764;DHT22;47432;48.760;9.178;2023-08-21T03:39:56;22.50;99.90
6764;DHT22;47432;48.760;9.178;2023-08-21T03:42:21;22.50;99.90
6764;DHT22;47432;48.760;9.178;2023-08-21T03:44:50;22.50;99.90
6764;DHT22;47432;48.760;9.178;2023-08-21T03:47:16;22.50;99.90
6764;DHT22;47432;48.760;9.178;2023-08-21T03:49:42;22.50;99.90
6764;DHT22;47432;48.760;9.178;2023-08-21T03:52:08;22.50;99.90
6764;DHT22;47432;48.760;9.178;2023-08-21T03:54:34;22.50;99.90
6764;DHT22;47432;48.760;9.178;2023-08-21T03:56:59;22.50;99.90
6764;DHT22;47432;48.760;9.178;2023-08-21T03:59:25;22.40;99.90
6764;DHT22;47432;48.760;9.178;2023-08-21T04:01:54;22.40;99.90
6764;DHT22;47432;48.760;9.178;2023-08-21T04:04:20;22.40;99.90
6764;DHT22;47432;48.760;9.178;2023-08-21T04:06:45;22.40;99.90
6764;DHT22;47432;48.760;9.178;2023-08-21T04:09:11;22.40;99.90
6764;DHT22;47432;48.760;9.178;2023-08-21T04:11:37;22.40;99.90
6764;DHT22;47432;48.760;9.178;2023-08-21T04:14:04;22.40;99.90
6764;DHT22;47432;48.760;9.178;2023-08-21T04:16:29;22.40;99.90
6764;DHT22;47432;48.760;9.178;2023-08-21T04:18:57;22.30;99.90
6764;DHT22;47432;48.760;9.178;2023-08-21T04:21:24;22.30;99.90
6764;DHT22;47432;48.760;9.178;2023-08-21T04:23:50;22.30;99.90
6764;DHT22;47432;48.760;9.178;2023-08-21T04:26:15;22.30;99.90
6764;DHT22;47432;48.760;9.178;2023-08-21T04:28:42;22.30;99.90
6764;DHT22;47432;48.760;9.178;2023-08-21T04:31:08;22.30;99.90
6764;DHT22;47432;48.760;9.178;2023-08-21T04:33:34;22.30;99.90
6764;DHT22;47432;48.760;9.178;2023-08-21T04:36:00;22.30;99.90
6764;DHT22;47432;48.760;9.178;2023-08-21T04:38:26;22.30;99.90
6764;DHT22;47432;48.760;9.178;2023-08-21T04:40:52;22.30;99.90
6764;DHT22;47432;48.760;9.178;2023-08-21T04:43:18;22.30;99.90
6764;DHT22;47432;48.760;9.178;2023-08-21T04:45:51;22.30;99.90
6764;DHT22;47432;48.760;9.178;2023-08-21T04:48:20;22.30;99.90
6764;DHT22;47432;48.760;9.178;2023-08-21T04:50:46;22.30;99.90
6764;DHT22;47432;48.760;9.178;2023-08-21T04:53:13;22.30;99.90
6764;DHT22;47432;48.760;9.178;2023-08-21T04:55:39;22.30;99.90
6764;DHT22;47432;48.760;9.178;2023-08-21T04:58:06;22.30;99.90
6764;DHT22;47432;48.760;9.178;2023-08-21T05:00:33;22.40;99.90
6764;DHT22;47432;48.760;9.178;2023-08-21T05:02:59;22.40;99.90
6764;DHT22;47432;48.760;9.178;2023-08-21T05:05:24;22.50;99.90
6764;DHT22;47432;48.760;9.178;2023-08-21T05:07:51;22.50;99.90
6764;DHT22;47432;48.760;9.178;2023-08-21T05:10:17;22.50;99.90
6764;DHT22;47432;48.760;9.178;2023-08-21T05:12:43;22.60;99.90
6764;DHT22;47432;48.760;9.178;2023-08-21T05:15:09;22.60;99.90
6764;DHT22;47432;48.760;9.178;2023-08-21T05:17:35;22.60;99.90
6764;DHT22;47432;48.760;9.178;2023-08-21T05:20:00;22.60;99.90
6764;DHT22;47432;48.760;9.178;2023-08-21T05:22:26;22.60;99.90
6764;DHT22;47432;48.760;9.178;2023-08-21T05:24:52;22.60;99.90
6764;DHT22;47432;48.760;9.178;2023-08-21T05:27:18;22.70;99.90
6764;DHT22;47432;48.760;9.178;2023-08-21T05:29:43;22.80;99.90
6764;DHT22;47432;48.760;9.178;2023-08-21T05:32:09;22.80;99.90
6764;DHT22;47432;48.760;9.178;2023-08-21T05:34:35;22.80;99.90
6764;DHT22;47432;48.760;9.178;2023-08-21T05:37:00;22.80;99.90
6764;DHT22;47432;48.760;9.178;2023-08-21T05:39:26;22.90;99.90
6764;DHT22;47432;48.760;9.178;2023-08-21T05:41:54;23.00;99.90
6764;DHT22;47432;48.760;9.178;2023-08-21T05:44:20;23.00;99.90
6764;DHT22;47432;48.760;9.178;2023-08-21T05:46:46;23.10;99.90
6764;DHT22;47432;48.760;9.178;2023-08-21T05:49:12;23.10;99.90
6764;DHT22;47432;48.760;9.178;2023-08-21T05:51:37;23.20;99.90
6764;DHT22;47432;48.760;9.178;2023-08-21T05:54:03;23.20;99.90
6764;DHT22;47432;48.760;9.178;2023-08-21T05:56:29;23.30;99.90
6764;DHT22;47432;48.760;9.178;2023-08-21T05:58:55;23.30;99.90
6764;DHT22;47432;48.760;9.178;2023-08-21T06:01:20;23.40;99.90
6764;DHT22;47432;48.760;9.178;2023-08-21T06:03:46;23.40;99.90
6764;DHT22;47432;48.760;9.178;2023-08-21T06:06:12;23.50;99.90
6764;DHT22;47432;48.760;9.178;2023-08-21T06:08:37;23.60;99.90
6764;DHT22;47432;48.760;9.178;2023-08-21T06:11:03;23.60;99.90
6764;DHT22;47432;48.760;9.178;2023-08-21T06:13:30;23.70;99.90
6764;DHT22;47432;48.760;9.178;2023-08-21T06:15:58;23.70;99.90
6764;DHT22;47432;48.760;9.178;2023-08-21T06:18:24;23.80;99.90
6764;DHT22;47432;48.760;9.178;2023-08-21T06:20:50;23.90;99.90
6764;DHT22;47432;48.760;9.178;2023-08-21T06:23:19;23.90;99.90
6764;DHT22;47432;48.760;9.178;2023-08-21T06:25:50;24.00;99.90
6764;DHT22;47432;48.760;9.178;2023-08-21T06:28:16;24.00;99.90
6764;DHT22;47432;48.760;9.178;2023-08-21T06:30:44;24.00;99.90
6764;DHT22;47432;48.760;9.178;2023-08-21T06:33:10;24.10;99.90
6764;DHT22;47432;48.760;9.178;2023-08-21T06:35:37;24.20;99.90
6764;DHT22;47432;48.760;9.178;2023-08-21T06:38:03;24.30;99.90
6764;DHT22;47432;48.760;9.178;2023-08-21T06:40:28;24.40;99.90
6764;DHT22;47432;48.760;9.178;2023-08-21T06:42:54;24.50;99.90
6764;DHT22;47432;48.760;9.178;2023-08-21T06:45:20;24.50;99.90
6764;DHT22;47432;48.760;9.178;2023-08-21T06:47:46;24.60;99.90
6764;DHT22;47432;48.760;9.178;2023-08-21T06:50:12;24.70;99.90
6764;DHT22;47432;48.760;9.178;2023-08-21T06:52:39;24.80;99.90
6764;DHT22;47432;48.760;9.178;2023-08-21T06:55:05;24.90;99.90
6764;DHT22;47432;48.760;9.178;2023-08-21T06:57:31;25.00;99.90
6764;DHT22;47432;48.760;9.178;2023-08-21T06:59:57;25.10;99.90
6764;DHT22;47432;48.760;9.178;2023-08-21T07:02:22;25.20;99.90
6764;DHT22;47432;48.760;9.178;2023-08-21T07:04:48;25.30;99.90
6764;DHT22;47432;48.760;9.178;2023-08-21T07:07:14;25.30;99.90
6764;DHT22;47432;48.760;9.178;2023-08-21T07:09:39;25.40;99.90
6764;DHT22;47432;48.760;9.178;2023-08-21T07:12:06;25.40;99.90
6764;DHT22;47432;48.760;9.178;2023-08-21T07:14:32;25.50;99.90
6764;DHT22;47432;48.760;9.178;2023-08-21T07:16:58;25.60;99.90
6764;DHT22;47432;48.760;9.178;2023-08-21T07:19:26;25.70;99.90
6764;DHT22;47432;48.760;9.178;2023-08-21T07:21:51;25.80;99.90
6764;DHT22;47432;48.760;9.178;2023-08-21T07:24:17;25.80;99.90
6764;DHT22;47432;48.760;9.178;2023-08-21T07:26:43;25.80;99.90
6764;DHT22;47432;48.760;9.178;2023-08-21T07:29:08;25.90;99.90
6764;DHT22;47432;48.760;9.178;2023-08-21T07:31:34;26.00;99.90
6764;DHT22;47432;48.760;9.178;2023-08-21T07:34:00;26.00;99.90
6764;DHT22;47432;48.760;9.178;2023-08-21T07:36:26;26.10;99.90
6764;DHT22;47432;48.760;9.178;2023-08-21T07:38:51;26.10;99.90
6764;DHT22;47432;48.760;9.178;2023-08-21T07:41:17;26.20;99.90
6764;DHT22;47432;48.760;9.178;2023-08-21T07:43:44;26.20;99.90
6764;DHT22;47432;48.760;9.178;2023-08-21T07:46:11;26.30;99.90
6764;DHT22;47432;48.760;9.178;2023-08-21T07:48:44;26.40;99.90
6764;DHT22;47432;48.760;9.178;2023-08-21T07:51:11;26.50;99.90
6764;DHT22;47432;48.760;9.178;2023-08-21T07:53:37;26.70;99.90
6764;DHT22;47432;48.760;9.178;2023-08-21T07:56:04;26.70;99.90
6764;DHT22;47432;48.760;9.178;2023-08-21T07:58:30;26.80;99.90
6764;DHT22;47432;48.760;9.178;2023-08-21T08:00:56;26.90;99.90
6764;DHT22;47432;48.760;9.178;2023-08-21T08:03:22;27.00;99.90
6764;DHT22;47432;48.760;9.178;2023-08-21T08:05:48;27.00;99.90
6764;DHT22;47432;48.760;9.178;2023-08-21T08:08:16;27.10;99.90
6764;DHT22;47432;48.760;9.178;2023-08-21T08:10:42;27.30;99.90
6764;DHT22;47432;48.760;9.178;2023-08-21T08:13:08;27.40;99.90
6764;DHT22;47432;48.760;9.178;2023-08-21T08:15:34;27.50;99.90
6764;DHT22;47432;48.760;9.178;2023-08-21T08:18:04;27.60;99.90
6764;DHT22;47432;48.760;9.178;2023-08-21T08:20:32;27.70;99.90
6764;DHT22;47432;48.760;9.178;2023-08-21T08:22:58;27.70;99.90
6764;DHT22;47432;48.760;9.178;2023-08-21T08:25:24;27.80;99.90
6764;DHT22;47432;48.760;9.178;2023-08-21T08:27:51;27.90;99.90
6764;DHT22;47432;48.760;9.178;2023-08-21T08:30:17;27.90;99.90
6764;DHT22;47432;48.760;9.178;2023-08-21T08:32:43;28.00;99.90
6764;DHT22;47432;48.760;9.178;2023-08-21T08:35:13;28.10;99.90
6764;DHT22;47432;48.760;9.178;2023-08-21T08:37:40;28.30;99.90
6764;DHT22;47432;48.760;9.178;2023-08-21T08:40:07;28.40;99.90
6764;DHT22;47432;48.760;9.178;2023-08-21T08:42:34;28.40;99.90
6764;DHT22;47432;48.760;9.178;2023-08-21T08:45:02;28.50;99.90
6764;DHT22;47432;48.760;9.178;2023-08-21T08:47:33;28.50;99.90
6764;DHT22;47432;48.760;9.178;2023-08-21T08:50:02;28.60;99.90
6764;DHT22;47432;48.760;9.178;2023-08-21T08:52:31;28.70;99.90
6764;DHT22;47432;48.760;9.178;2023-08-21T08:55:00;28.80;99.90
6764;DHT22;47432;48.760;9.178;2023-08-21T08:57:27;28.90;99.90
6764;DHT22;47432;48.760;9.178;2023-08-21T08:59:53;29.00;99.90
6764;DHT22;47432;48.760;9.178;2023-08-21T09:02:19;29.10;99.90
6764;DHT22;47432;48.760;9.178;2023-08-21T09:04:45;29.20;99.90
6764;DHT22;47432;48.760;9.178;2023-08-21T09:07:11;29.20;99.90
6764;DHT22;47432;48.760;9.178;2023-08-21T09:09:45;29.30;99.90
6764;DHT22;47432;48.760;9.178;2023-08-21T09:12:15;29.20;99.90
6764;DHT22;47432;48.760;9.178;2023-08-21T09:14:41;29.30;99.90
6764;DHT22;47432;48.760;9.178;2023-08-21T09:17:07;29.30;99.90
6764;DHT22;47432;48.760;9.178;2023-08-21T09:19:36;29.40;99.90
6764;DHT22;47432;48.760;9.178;2023-08-21T09:22:09;29.50;99.90
6764;DHT22;47432;48.760;9.178;2023-08-21T09:24:39;29.40;99.90
6764;DHT22;47432;48.760;9.178;2023-08-21T09:27:16;29.30;99.90
6764;DHT22;47432;48.760;9.178;2023-08-21T09:29:42;29.40;99.90
6764;DHT22;47432;48.760;9.178;2023-08-21T09:32:08;29.50;99.90
6764;DHT22;47432;48.760;9.178;2023-08-21T09:34:37;29.40;99.90
6764;DHT22;47432;48.760;9.178;2023-08-21T09:37:06;29.50;99.90
6764;DHT22;47432;48.760;9.178;2023-08-21T09:39:34;29.40;99.90
6764;DHT22;47432;48.760;9.178;2023-08-21T09:42:04;29.40;99.90
6764;DHT22;47432;48.760;9.178;2023-08-21T09:44:35;29.40;99.90
6764;DHT22;47432;48.760;9.178;2023-08-21T09:47:08;29.40;99.90
6764;DHT22;47432;48.760;9.178;2023-08-21T09:49:35;29.60;99.90
6764;DHT22;47432;48.760;9.178;2023-08-21T09:52:07;29.70;99.90
6764;DHT22;47432;48.760;9.178;2023-08-21T09:54:36;29.80;99.90
6764;DHT22;47432;48.760;9.178;2023-08-21T09:57:04;29.90;99.90
6764;DHT22;47432;48.760;9.178;2023-08-21T09:59:30;29.90;99.90
6764;DHT22;47432;48.760;9.178;2023-08-21T10:01:59;30.00;99.90
6764;DHT22;47432;48.760;9.178;2023-08-21T10:04:28;29.90;99.90
6764;DHT22;47432;48.760;9.178;2023-08-21T10:06:56;29.90;99.90
6764;DHT22;47432;48.760;9.178;2023-08-21T10:09:23;29.80;99.90
6764;DHT22;47432;48.760;9.178;2023-08-21T10:11:52;29.80;99.90
6764;DHT22;47432;48.760;9.178;2023-08-21T10:14:20;29.90;99.90
6764;DHT22;47432;48.760;9.178;2023-08-21T10:16:47;30.20;99.90
6764;DHT22;47432;48.760;9.178;2023-08-21T10:19:17;30.30;99.90
6764;DHT22;47432;48.760;9.178;2023-08-21T10:21:46;30.40;99.90
6764;DHT22;47432;48.760;9.178;2023-08-21T10:24:26;30.50;99.90
6764;DHT22;47432;48.760;9.178;2023-08-21T10:27:02;29.80;99.90
6764;DHT22;47432;48.760;9.178;2023-08-21T10:29:30;30.70;99.90
6764;DHT22;47432;48.760;9.178;2023-08-21T10:32:02;30.70;99.90
6764;DHT22;47432;48.760;9.178;2023-08-21T10:34:34;30.70;99.90
6764;DHT22;47432;48.760;9.178;2023-08-21T10:37:10;30.70;99.90
6764;DHT22;47432;48.760;9.178;2023-08-21T10:39:55;30.90;99.90
6764;DHT22;47432;48.760;9.178;2023-08-21T10:42:38;31.10;99.90
6764;DHT22;47432;48.760;9.178;2023-08-21T10:45:12;31.30;99.90
6764;DHT22;47432;48.760;9.178;2023-08-21T10:47:38;31.30;99.90
6764;DHT22;47432;48.760;9.178;2023-08-21T10:50:05;31.30;99.90
6764;DHT22;47432;48.760;9.178;2023-08-21T10:52:38;31.30;99.90
6764;DHT22;47432;48.760;9.178;2023-08-21T10:55:09;31.40;99.90
6764;DHT22;47432;48.760;9.178;2023-08-21T10:57:38;31.30;99.90
6764;DHT22;47432;48.760;9.178;2023-08-21T11:00:11;31.50;99.90
6764;DHT22;47432;48.760;9.178;2023-08-21T11:02:43;31.60;99.90
6764;DHT22;47432;48.760;9.178;2023-08-21T11:05:10;31.80;99.90
6764;DHT22;47432;48.760;9.178;2023-08-21T11:07:38;31.90;99.90
6764;DHT22;47432;48.760;9.178;2023-08-21T11:10:14;32.00;99.90
6764;DHT22;47432;48.760;9.178;2023-08-21T11:12:52;30.40;99.90
6764;DHT22;47432;48.760;9.178;2023-08-21T11:15:21;31.60;99.90
6764;DHT22;47432;48.760;9.178;2023-08-21T11:17:54;31.70;99.90
6764;DHT22;47432;48.760;9.178;2023-08-21T11:20:22;31.70;99.90
6764;DHT22;47432;48.760;9.178;2023-08-21T11:22:48;31.80;99.90
6764;DHT22;47432;48.760;9.178;2023-08-21T11:25:15;31.90;99.90
6764;DHT22;47432;48.760;9.178;2023-08-21T11:27:41;32.00;99.90
6764;DHT22;47432;48.760;9.178;2023-08-21T11:30:13;32.00;99.90
6764;DHT22;47432;48.760;9.178;2023-08-21T11:32:39;31.90;99.90
6764;DHT22;47432;48.760;9.178;2023-08-21T11:35:05;31.90;99.90
6764;DHT22;47432;48.760;9.178;2023-08-21T11:37:30;32.10;99.90
6764;DHT22;47432;48.760;9.178;2023-08-21T11:39:57;32.30;99.90
6764;DHT22;47432;48.760;9.178;2023-08-21T11:42:31;32.40;99.90
6764;DHT22;47432;48.760;9.178;2023-08-21T11:44:59;32.50;99.90
6764;DHT22;47432;48.760;9.178;2023-08-21T11:47:34;32.70;99.90
6764;DHT22;47432;48.760;9.178;2023-08-21T11:50:05;32.80;99.90
6764;DHT22;47432;48.760;9.178;2023-08-21T11:52:32;32.90;99.80
6764;DHT22;47432;48.760;9.178;2023-08-21T11:55:07;33.10;99.90
6764;DHT22;47432;48.760;9.178;2023-08-21T11:57:48;33.10;99.60
6764;DHT22;47432;48.760;9.178;2023-08-21T12:00:15;33.30;99.90
6764;DHT22;47432;48.760;9.178;2023-08-21T12:02:57;33.50;99.20
6764;DHT22;47432;48.760;9.178;2023-08-21T12:05:24;33.60;98.50
6764;DHT22;47432;48.760;9.178;2023-08-21T12:07:50;33.10;98.50
6764;DHT22;47432;48.760;9.178;2023-08-21T12:10:23;32.80;98.60
6764;DHT22;47432;48.760;9.178;2023-08-21T12:12:55;32.70;98.70
6764;DHT22;47432;48.760;9.178;2023-08-21T12:15:22;32.80;98.50
6764;DHT22;47432;48.760;9.178;2023-08-21T12:17:50;32.80;98.80
6764;DHT22;47432;48.760;9.178;2023-08-21T12:20:16;32.80;98.70
6764;DHT22;47432;48.760;9.178;2023-08-21T12:22:42;32.90;98.90
6764;DHT22;47432;48.760;9.178;2023-08-21T12:25:08;32.90;98.00
6764;DHT22;47432;48.760;9.178;2023-08-21T12:27:36;32.80;98.30
6764;DHT22;47432;48.760;9.178;2023-08-21T12:30:02;32.90;98.40
6764;DHT22;47432;48.760;9.178;2023-08-21T12:32:32;33.00;98.30
6764;DHT22;47432;48.760;9.178;2023-08-21T12:34:57;33.20;98.20
6764;DHT22;47432;48.760;9.178;2023-08-21T12:37:26;33.30;98.10
6764;DHT22;47432;48.760;9.178;2023-08-21T12:39:53;33.50;97.60
6764;DHT22;47432;48.760;9.178;2023-08-21T12:42:19;33.70;98.10
6764;DHT22;47432;48.760;9.178;2023-08-21T12:44:44;34.00;99.60
6764;DHT22;47432;48.760;9.178;2023-08-21T12:47:10;34.20;98.30
6764;DHT22;47432;48.760;9.178;2023-08-21T12:49:38;34.40;98.20
6764;DHT22;47432;48.760;9.178;2023-08-21T12:52:04;34.70;98.50
6764;DHT22;47432;48.760;9.178;2023-08-21T12:54:32;34.90;97.60
6764;DHT22;47432;48.760;9.178;2023-08-21T12:56:58;34.80;95.80
6764;DHT22;47432;48.760;9.178;2023-08-21T12:59:24;34.60;96.10
6764;DHT22;47432;48.760;9.178;2023-08-21T13:01:50;34.70;97.00
6764;DHT22;47432;48.760;9.178;2023-08-21T13:04:16;34.90;96.50
6764;DHT22;47432;48.760;9.178;2023-08-21T13:06:44;35.10;95.00
6764;DHT22;47432;48.760;9.178;2023-08-21T13:09:09;35.10;95.00
6764;DHT22;47432;48.760;9.178;2023-08-21T13:11:37;35.00;95.30
6764;DHT22;47432;48.760;9.178;2023-08-21T13:14:03;34.90;95.30
6764;DHT22;47432;48.760;9.178;2023-08-21T13:16:29;34.80;95.10
6764;DHT22;47432;48.760;9.178;2023-08-21T13:18:55;34.80;95.10
6764;DHT22;47432;48.760;9.178;2023-08-21T13:21:20;34.30;95.20
6764;DHT22;47432;48.760;9.178;2023-08-21T13:23:46;34.20;95.40
6764;DHT22;47432;48.760;9.178;2023-08-21T13:26:12;34.40;95.70
6764;DHT22;47432;48.760;9.178;2023-08-21T13:28:37;34.70;94.90
6764;DHT22;47432;48.760;9.178;2023-08-21T13:31:03;34.80;94.60
6764;DHT22;47432;48.760;9.178;2023-08-21T13:33:29;35.00;94.20
6764;DHT22;47432;48.760;9.178;2023-08-21T13:35:55;34.90;94.10
6764;DHT22;47432;48.760;9.178;2023-08-21T13:38:21;35.10;94.30
6764;DHT22;47432;48.760;9.178;2023-08-21T13:40:47;35.50;93.80
6764;DHT22;47432;48.760;9.178;2023-08-21T13:43:13;36.00;93.60
6764;DHT22;47432;48.760;9.178;2023-08-21T13:45:39;36.40;93.10
6764;DHT22;47432;48.760;9.178;2023-08-21T13:48:07;37.10;92.50
6764;DHT22;47432;48.760;9.178;2023-08-21T13:50:33;37.50;92.80
6764;DHT22;47432;48.760;9.178;2023-08-21T13:52:59;37.90;91.20
6764;DHT22;47432;48.760;9.178;2023-08-21T13:55:26;38.20;90.90
6764;DHT22;47432;48.760;9.178;2023-08-21T13:57:52;38.20;90.50
6764;DHT22;47432;48.760;9.178;2023-08-21T14:00:17;38.10;90.20
6764;DHT22;47432;48.760;9.178;2023-08-21T14:02:43;38.00;91.00
6764;DHT22;47432;48.760;9.178;2023-08-21T14:05:10;37.80;89.30
6764;DHT22;47432;48.760;9.178;2023-08-21T14:07:36;38.40;90.20
6764;DHT22;47432;48.760;9.178;2023-08-21T14:10:03;38.20;88.00
6764;DHT22;47432;48.760;9.178;2023-08-21T14:12:32;38.10;89.60
6764;DHT22;47432;48.760;9.178;2023-08-21T14:14:59;38.00;88.50
6764;DHT22;47432;48.760;9.178;2023-08-21T14:17:25;38.00;88.80
6764;DHT22;47432;48.760;9.178;2023-08-21T14:19:51;37.90;88.00
6764;DHT22;47432;48.760;9.178;2023-08-21T14:22:19;38.10;87.20
6764;DHT22;47432;48.760;9.178;2023-08-21T14:24:44;38.30;86.80
6764;DHT22;47432;48.760;9.178;2023-08-21T14:27:10;38.20;87.40
6764;DHT22;47432;48.760;9.178;2023-08-21T14:29:38;38.50;86.20
6764;DHT22;47432;48.760;9.178;2023-08-21T14:32:04;39.00;83.90
6764;DHT22;47432;48.760;9.178;2023-08-21T14:34:30;39.60;83.60
6764;DHT22;47432;48.760;9.178;2023-08-21T14:36:58;40.10;83.10
6764;DHT22;47432;48.760;9.178;2023-08-21T14:39:25;39.90;79.70
6764;DHT22;47432;48.760;9.178;2023-08-21T14:41:57;38.90;82.30
6764;DHT22;47432;48.760;9.178;2023-08-21T14:44:24;39.00;81.50
6764;DHT22;47432;48.760;9.178;2023-08-21T14:46:52;39.70;80.60
6764;DHT22;47432;48.760;9.178;2023-08-21T14:49:18;40.40;82.30
6764;DHT22;47432;48.760;9.178;2023-08-21T14:51:44;40.90;78.60
6764;DHT22;47432;48.760;9.178;2023-08-21T14:54:09;41.60;76.90
6764;DHT22;47432;48.760;9.178;2023-08-21T14:56:35;42.10;74.60
6764;DHT22;47432;48.760;9.178;2023-08-21T14:59:02;42.70;72.80
6764;DHT22;47432;48.760;9.178;2023-08-21T15:01:40;43.30;70.90
6764;DHT22;47432;48.760;9.178;2023-08-21T15:04:07;44.10;67.30
6764;DHT22;47432;48.760;9.178;2023-08-21T15:06:34;43.90;66.60
6764;DHT22;47432;48.760;9.178;2023-08-21T15:09:00;44.00;65.10
6764;DHT22;47432;48.760;9.178;2023-08-21T15:11:26;43.10;64.50
6764;DHT22;47432;48.760;9.178;2023-08-21T15:13:52;42.70;64.60
6764;DHT22;47432;48.760;9.178;2023-08-21T15:16:21;42.80;64.60
6764;DHT22;47432;48.760;9.178;2023-08-21T15:18:47;42.70;64.70
6764;DHT22;47432;48.760;9.178;2023-08-21T15:21:16;42.80;64.00
6764;DHT22;47432;48.760;9.178;2023-08-21T15:23:41;43.00;64.90
6764;DHT22;47432;48.760;9.178;2023-08-21T15:26:07;43.00;63.10
6764;DHT22;47432;48.760;9.178;2023-08-21T15:28:35;43.00;62.50
6764;DHT22;47432;48.760;9.178;2023-08-21T15:31:01;42.70;62.80
6764;DHT22;47432;48.760;9.178;2023-08-21T15:33:27;42.90;63.50
6764;DHT22;47432;48.760;9.178;2023-08-21T15:35:52;43.30;62.10
6764;DHT22;47432;48.760;9.178;2023-08-21T15:38:18;43.70;60.80
6764;DHT22;47432;48.760;9.178;2023-08-21T15:40:44;43.40;60.40
6764;DHT22;47432;48.760;9.178;2023-08-21T15:43:10;43.00;61.50
6764;DHT22;47432;48.760;9.178;2023-08-21T15:45:35;42.80;60.30
6764;DHT22;47432;48.760;9.178;2023-08-21T15:48:03;41.70;63.00